Time;durP1;ratioP1;P1;durP2;ratioP2;P2;SDS_P1;SDS_P2;PMS_P1;PMS_P2;Temp;Humidity;BMP_temperature;BMP_pressure;BME280_temperature;BME280_humidity;BME280_pressure;Samples;Min_cycle;Max_cycle;Signal;HPM_P1;HPM_P2
2021/10/19 00:00:13;;;;;;;12.13;10.53;;;14.10;99.90;;;;;;4995529;28;20230;-70
2021/10/19 00:02:41;;;;;;;10.02;9.02;;;14.10;99.90;;;;;;5008963;28;20466;-71
2021/10/19 00:05:09;;;;;;;10.30;9.30;;;14.10;99.90;;;;;;4995588;28;20612;-70
2021/10/19 00:07:37;;;;;;;11.43;10.35;;;14.10;99.90;;;;;;5001679;28;20994;-70
2021/10/19 00:10:07;;;;;;;11.48;10.43;;;14.10;99.90;;;;;;5006941;28;20229;-70
2021/10/19 00:12:35;;;;;;;12.63;10.93;;;14.00;99.90;;;;;;5013201;28;20275;-70
2021/10/19 00:15:02;;;;;;;11.98;10.40;;;14.00;99.90;;;;;;5001260;28;20563;-70
2021/10/19 00:17:29;;;;;;;11.38;10.27;;;14.00;99.90;;;;;;5001904;28;20226;-70
2021/10/19 00:19:56;;;;;;;11.63;10.52;;;13.90;99.90;;;;;;5004125;28;20312;-70
2021/10/19 00:22:23;;;;;;;13.00;10.40;;;13.90;99.90;;;;;;5000351;28;20229;-70
2021/10/19 00:24:50;;;;;;;12.73;11.35;;;13.90;99.90;;;;;;5021665;28;20302;-70
2021/10/19 00:27:18;;;;;;;13.18;11.95;;;13.90;99.90;;;;;;5025670;28;20610;-70
2021/10/19 00:29:45;;;;;;;13.10;11.80;;;13.90;99.90;;;;;;5013442;28;20234;-70
2021/10/19 00:32:12;;;;;;;11.95;10.80;;;13.90;99.90;;;;;;5025623;28;20778;-70
2021/10/19 00:34:39;;;;;;;12.63;11.32;;;13.90;99.90;;;;;;5031380;28;20237;-70
2021/10/19 00:37:06;;;;;;;12.90;11.65;;;13.90;99.90;;;;;;5013037;28;20438;-70
2021/10/19 00:39:33;;;;;;;14.50;13.00;;;13.90;99.90;;;;;;5013712;28;20591;-70
2021/10/19 00:42:00;;;;;;;15.25;11.73;;;13.90;99.90;;;;;;5017048;28;20226;-70
2021/10/19 00:44:28;;;;;;;11.98;10.77;;;13.80;99.90;;;;;;5034716;28;20229;-70
2021/10/19 00:46:57;;;;;;;13.15;11.85;;;13.80;99.90;;;;;;5034212;28;20237;-70
2021/10/19 00:49:25;;;;;;;12.18;11.05;;;13.80;99.90;;;;;;5033702;28;20237;-70
2021/10/19 00:51:52;;;;;;;11.38;10.38;;;13.80;99.90;;;;;;5034359;28;21035;-70
2021/10/19 00:54:19;;;;;;;12.55;11.13;;;13.80;99.90;;;;;;5034418;28;20237;-70
2021/10/19 00:56:46;;;;;;;13.43;12.02;;;13.80;99.90;;;;;;5034817;28;20533;-70
2021/10/19 00:59:16;;;;;;;14.18;12.95;;;13.80;99.90;;;;;;5033695;28;20225;-70
2021/10/19 01:01:44;;;;;;;14.38;12.88;;;13.80;99.90;;;;;;5034455;28;20237;-70
2021/10/19 01:04:11;;;;;;;13.50;12.20;;;13.70;99.90;;;;;;5034218;28;20244;-70
2021/10/19 01:06:38;;;;;;;13.90;12.43;;;13.70;99.90;;;;;;5034358;28;20603;-70
2021/10/19 01:09:05;;;;;;;14.18;12.68;;;13.70;99.90;;;;;;5033691;28;20237;-70
2021/10/19 01:11:32;;;;;;;14.13;12.73;;;13.70;99.90;;;;;;5033687;28;20229;-70
2021/10/19 01:13:59;;;;;;;13.50;12.20;;;13.60;99.90;;;;;;5033349;28;20299;-70
2021/10/19 01:16:26;;;;;;;14.63;12.35;;;13.60;99.90;;;;;;5034220;28;20229;-70
2021/10/19 01:18:54;;;;;;;13.82;12.50;;;13.60;99.90;;;;;;5033354;28;20271;-70
2021/10/19 01:21:22;;;;;;;14.90;12.57;;;13.60;99.90;;;;;;5034150;28;20704;-70
2021/10/19 01:23:50;;;;;;;15.17;13.77;;;13.60;99.90;;;;;;5033621;28;20476;-70
2021/10/19 01:26:17;;;;;;;14.80;13.33;;;13.60;99.90;;;;;;5033669;28;20938;-70
2021/10/19 01:28:44;;;;;;;13.95;12.60;;;13.60;99.90;;;;;;5033989;28;20538;-70
2021/10/19 01:31:12;;;;;;;14.57;13.18;;;13.50;99.90;;;;;;5033675;28;20221;-70
2021/10/19 01:33:39;;;;;;;15.25;12.98;;;13.60;99.90;;;;;;5033820;28;20225;-70
2021/10/19 01:36:07;;;;;;;14.30;12.80;;;13.50;99.90;;;;;;5033321;28;20724;-70
2021/10/19 01:38:38;;;;;;;16.75;15.15;;;13.40;99.90;;;;;;5033768;28;20283;-70
2021/10/19 01:41:05;;;;;;;17.25;15.50;;;13.40;99.90;;;;;;5033405;28;20236;-70
2021/10/19 01:43:33;;;;;;;14.88;13.45;;;13.40;99.90;;;;;;5028597;28;20268;-70
2021/10/19 01:46:02;;;;;;;14.20;12.90;;;13.40;99.90;;;;;;5013636;28;20226;-69
2021/10/19 01:48:30;;;;;;;13.90;12.50;;;13.30;99.90;;;;;;5013702;28;20229;-70
2021/10/19 01:50:57;;;;;;;15.15;13.52;;;13.30;99.90;;;;;;5013472;28;20230;-70
2021/10/19 01:53:25;;;;;;;15.27;13.68;;;13.40;99.90;;;;;;5013811;28;20533;-70
2021/10/19 01:55:53;;;;;;;12.80;11.32;;;13.30;99.90;;;;;;5013743;28;20225;-70
2021/10/19 01:58:23;;;;;;;16.25;14.18;;;13.30;99.90;;;;;;5013383;28;20268;-70
2021/10/19 02:00:51;;;;;;;15.27;13.70;;;13.40;99.90;;;;;;5013645;28;20226;-70
2021/10/19 02:03:18;;;;;;;16.40;14.65;;;13.30;99.90;;;;;;5013053;28;20230;-70
2021/10/19 02:05:46;;;;;;;17.27;15.10;;;13.30;99.90;;;;;;5013636;28;20265;-70
2021/10/19 02:08:14;;;;;;;18.00;15.38;;;13.20;99.90;;;;;;5013076;28;20232;-70
2021/10/19 02:10:44;;;;;;;15.93;14.40;;;13.20;99.90;;;;;;5022148;28;20676;-70
2021/10/19 02:13:12;;;;;;;14.73;13.38;;;13.20;99.90;;;;;;5032528;28;20229;-70
2021/10/19 02:15:40;;;;;;;16.70;15.00;;;13.20;99.90;;;;;;5033428;28;20229;-70
2021/10/19 02:18:08;;;;;;;15.38;13.70;;;13.20;99.90;;;;;;5032839;28;20236;-70
2021/10/19 02:20:36;;;;;;;16.70;15.00;;;13.20;99.90;;;;;;5033150;28;20612;-70
2021/10/19 02:23:03;;;;;;;17.92;13.60;;;13.20;99.90;;;;;;5032599;28;20218;-70
2021/10/19 02:25:30;;;;;;;16.33;14.68;;;13.30;99.90;;;;;;5032925;28;20621;-70
2021/10/19 02:27:59;;;;;;;16.27;13.55;;;13.30;99.90;;;;;;5033002;28;20252;-70
2021/10/19 02:30:28;;;;;;;19.30;16.30;;;13.30;99.90;;;;;;5032717;28;20283;-70
2021/10/19 02:32:56;;;;;;;18.02;16.33;;;13.30;99.90;;;;;;5032819;28;20288;-70
2021/10/19 02:35:23;;;;;;;16.85;14.60;;;13.30;99.90;;;;;;5032266;28;20229;-70
2021/10/19 02:37:53;;;;;;;16.40;14.85;;;13.30;99.90;;;;;;5032938;28;20229;-70
2021/10/19 02:40:20;;;;;;;16.92;14.65;;;13.40;99.90;;;;;;5032262;28;20239;-70
2021/10/19 02:42:48;;;;;;;15.20;13.70;;;13.40;99.90;;;;;;5032720;28;20229;-70
2021/10/19 02:45:16;;;;;;;15.75;14.27;;;13.40;99.90;;;;;;5013294;28;20229;-70
2021/10/19 02:47:44;;;;;;;17.45;15.25;;;13.50;99.90;;;;;;5013066;28;20564;-70
2021/10/19 02:50:12;;;;;;;17.10;15.30;;;13.40;99.90;;;;;;5012629;28;20233;-70
2021/10/19 02:52:39;;;;;;;15.95;14.48;;;13.40;99.90;;;;;;5013358;28;20737;-70
2021/10/19 02:55:08;;;;;;;14.65;13.20;;;13.50;99.90;;;;;;5012327;28;20225;-70
2021/10/19 02:57:35;;;;;;;16.07;14.47;;;13.50;99.90;;;;;;5012919;28;20226;-70
2021/10/19 03:00:02;;;;;;;17.25;15.68;;;13.50;99.90;;;;;;5012814;28;20480;-70
2021/10/19 03:02:29;;;;;;;15.60;14.00;;;13.50;99.90;;;;;;5012485;28;20222;-70
2021/10/19 03:04:57;;;;;;;17.35;15.55;;;13.50;99.90;;;;;;5012941;28;20284;-70
2021/10/19 03:07:24;;;;;;;16.85;14.88;;;13.50;99.90;;;;;;5012518;28;20837;-70
2021/10/19 03:09:51;;;;;;;18.97;15.70;;;13.50;99.90;;;;;;5015114;28;20292;-69
2021/10/19 03:12:18;;;;;;;16.92;15.23;;;13.50;99.90;;;;;;5031839;28;20537;-70
2021/10/19 03:14:45;;;;;;;15.60;14.10;;;13.40;99.90;;;;;;5032649;28;20226;-70
2021/10/19 03:17:12;;;;;;;16.98;15.25;;;13.40;99.90;;;;;;5031892;28;20229;-70
2021/10/19 03:19:39;;;;;;;16.52;14.57;;;13.40;99.90;;;;;;5032468;28;20233;-70
2021/10/19 03:22:07;;;;;;;16.65;14.90;;;13.40;99.90;;;;;;5032264;28;20221;-70
2021/10/19 03:24:34;;;;;;;18.17;16.20;;;13.40;99.90;;;;;;5036195;28;20226;-70
2021/10/19 03:27:01;;;;;;;15.43;14.02;;;13.40;99.90;;;;;;5036373;28;20614;-71
2021/10/19 03:29:28;;;;;;;15.32;13.40;;;13.40;99.90;;;;;;5035684;28;20229;-70
2021/10/19 03:31:55;;;;;;;17.05;15.35;;;13.40;99.90;;;;;;5036126;28;20217;-70
2021/10/19 03:34:22;;;;;;;17.50;15.13;;;13.40;99.90;;;;;;5035721;28;20602;-70
2021/10/19 03:36:49;;;;;;;17.35;15.50;;;13.30;99.90;;;;;;5035972;28;20225;-70
2021/10/19 03:39:17;;;;;;;15.65;14.05;;;13.40;99.90;;;;;;5035424;28;20221;-70
2021/10/19 03:41:45;;;;;;;15.45;13.95;;;13.40;99.90;;;;;;5036142;28;20213;-70
2021/10/19 03:44:12;;;;;;;17.15;15.35;;;13.30;99.90;;;;;;5024898;28;20280;-70
2021/10/19 03:46:39;;;;;;;17.33;15.43;;;13.30;99.90;;;;;;5016169;28;20222;-70
2021/10/19 03:49:06;;;;;;;17.08;15.30;;;13.30;99.90;;;;;;5016111;28;20256;-69
2021/10/19 03:51:33;;;;;;;16.40;14.80;;;13.30;99.90;;;;;;5015523;28;20587;-69
2021/10/19 03:54:00;;;;;;;16.48;14.85;;;13.30;99.90;;;;;;5015784;28;20238;-71
2021/10/19 03:56:28;;;;;;;17.23;15.43;;;13.20;99.90;;;;;;5015602;28;20229;-71
2021/10/19 03:58:55;;;;;;;17.35;15.68;;;13.20;99.90;;;;;;5015490;28;20292;-70
2021/10/19 04:01:22;;;;;;;18.13;15.82;;;13.20;99.90;;;;;;5015311;28;20268;-71
2021/10/19 04:03:49;;;;;;;16.58;14.95;;;13.20;99.90;;;;;;5015927;28;20243;-71
2021/10/19 04:06:16;;;;;;;17.83;16.08;;;13.20;99.90;;;;;;5015175;28;20290;-71
2021/10/19 04:08:43;;;;;;;17.90;15.95;;;13.20;99.90;;;;;;5015685;28;20222;-71
2021/10/19 04:11:10;;;;;;;17.38;15.57;;;13.20;99.90;;;;;;5028919;28;20544;-71
2021/10/19 04:13:38;;;;;;;20.65;17.63;;;13.10;99.90;;;;;;5035047;28;20831;-70
2021/10/19 04:16:06;;;;;;;20.20;17.92;;;13.10;99.90;;;;;;5035402;28;20236;-70
2021/10/19 04:18:33;;;;;;;18.77;16.95;;;13.10;99.90;;;;;;5034773;28;20236;-70
2021/10/19 04:21:00;;;;;;;20.35;17.20;;;13.00;99.90;;;;;;5035262;28;20228;-71
2021/10/19 04:23:27;;;;;;;20.58;18.48;;;13.00;99.90;;;;;;5034788;28;20299;-69
2021/10/19 04:25:54;;;;;;;19.88;17.88;;;13.00;99.90;;;;;;5035289;28;20620;-69
2021/10/19 04:28:21;;;;;;;19.63;16.65;;;12.90;99.90;;;;;;5034603;28;20549;-69
2021/10/19 04:30:51;;;;;;;18.10;16.35;;;12.90;99.90;;;;;;5035100;28;20229;-71
2021/10/19 04:33:18;;;;;;;17.65;15.75;;;12.90;99.90;;;;;;5034022;28;20848;-71
2021/10/19 04:35:45;;;;;;;18.92;16.73;;;12.90;99.90;;;;;;5034871;28;20545;-70
2021/10/19 04:38:13;;;;;;;21.50;18.73;;;12.90;99.90;;;;;;5034968;28;20217;-68
2021/10/19 04:40:40;;;;;;;18.00;15.88;;;12.90;99.90;;;;;;5034483;28;20304;-68
2021/10/19 04:43:07;;;;;;;17.65;15.73;;;12.90;99.90;;;;;;5033213;28;20240;-69
2021/10/19 04:45:34;;;;;;;20.50;18.33;;;12.90;99.90;;;;;;5014607;28;20222;-69
2021/10/19 04:48:02;;;;;;;20.15;17.98;;;12.90;99.90;;;;;;5015054;28;20600;-69
2021/10/19 04:50:30;;;;;;;19.30;17.30;;;12.90;99.90;;;;;;5014377;28;20687;-69
2021/10/19 04:52:57;;;;;;;19.83;17.40;;;12.90;99.90;;;;;;5015022;28;20222;-69
2021/10/19 04:55:24;;;;;;;19.85;17.75;;;12.90;99.90;;;;;;5014244;28;20229;-69
2021/10/19 04:57:51;;;;;;;19.33;17.42;;;13.00;99.90;;;;;;5014872;28;20632;-69
2021/10/19 05:00:18;;;;;;;21.20;18.33;;;13.00;99.90;;;;;;5014224;28;20248;-69
2021/10/19 05:02:46;;;;;;;21.88;19.13;;;13.00;99.90;;;;;;5014747;28;20695;-69
2021/10/19 05:05:15;;;;;;;23.00;18.05;;;13.00;99.90;;;;;;5014582;28;20229;-69
2021/10/19 05:07:42;;;;;;;20.75;18.48;;;13.00;99.90;;;;;;5014543;28;20222;-69
2021/10/19 05:10:10;;;;;;;18.83;16.90;;;13.00;99.90;;;;;;5019289;28;20236;-69
2021/10/19 05:12:37;;;;;;;18.58;16.15;;;13.00;99.90;;;;;;5033892;28;20260;-69
2021/10/19 05:15:04;;;;;;;20.48;18.33;;;13.00;99.90;;;;;;5034456;28;20233;-69
2021/10/19 05:17:31;;;;;;;19.60;17.50;;;13.00;99.90;;;;;;5033775;28;20226;-69
2021/10/19 05:19:58;;;;;;;19.02;16.65;;;13.10;99.90;;;;;;5034333;28;20236;-69
2021/10/19 05:22:27;;;;;;;20.38;18.17;;;13.10;99.90;;;;;;5033480;28;20279;-69
2021/10/19 05:24:54;;;;;;;18.95;16.92;;;13.10;99.90;;;;;;5033912;28;20225;-69
2021/10/19 05:27:21;;;;;;;16.75;15.05;;;13.10;99.90;;;;;;5033775;28;20229;-69
2021/10/19 05:29:48;;;;;;;17.95;16.05;;;13.10;99.90;;;;;;5033875;28;20272;-69
2021/10/19 05:32:15;;;;;;;22.58;17.48;;;13.10;99.90;;;;;;5033719;28;20690;-69
2021/10/19 05:34:42;;;;;;;23.05;17.25;;;13.10;99.90;;;;;;5031412;28;20244;-69
2021/10/19 05:37:09;;;;;;;20.00;17.95;;;13.10;99.90;;;;;;5014018;28;20237;-71
2021/10/19 05:39:37;;;;;;;20.42;18.05;;;13.00;99.90;;;;;;5013456;28;20233;-70
2021/10/19 05:42:04;;;;;;;19.98;17.88;;;13.00;99.90;;;;;;5016748;28;20610;-69
2021/10/19 05:44:31;;;;;;;18.35;16.33;;;12.90;99.90;;;;;;5032786;28;20226;-71
2021/10/19 05:46:58;;;;;;;19.35;17.25;;;13.00;99.90;;;;;;5033186;28;20227;-71
2021/10/19 05:49:25;;;;;;;21.10;18.30;;;13.00;99.90;;;;;;5033105;28;20626;-68
2021/10/19 05:51:55;;;;;;;19.25;16.83;;;12.90;99.90;;;;;;5033636;28;20694;-69
2021/10/19 05:54:22;;;;;;;21.10;17.33;;;12.90;99.90;;;;;;5032801;28;20702;-71
2021/10/19 05:56:51;;;;;;;24.17;19.45;;;12.90;99.90;;;;;;5033580;28;20701;-71
2021/10/19 05:59:18;;;;;;;22.65;18.42;;;12.90;99.90;;;;;;5033151;28;20252;-68
2021/10/19 06:01:45;;;;;;;21.33;19.08;;;12.90;99.90;;;;;;5032728;28;20225;-69
2021/10/19 06:04:12;;;;;;;20.95;18.42;;;12.90;99.90;;;;;;5033304;28;20320;-69
2021/10/19 06:06:39;;;;;;;21.17;18.13;;;12.90;99.90;;;;;;5032743;28;20744;-69
2021/10/19 06:09:06;;;;;;;22.92;18.67;;;12.90;99.90;;;;;;5033079;28;20709;-69
2021/10/19 06:11:34;;;;;;;29.10;20.08;;;12.90;99.90;;;;;;5032646;28;20287;-69
2021/10/19 06:14:02;;;;;;;22.10;19.40;;;12.90;99.90;;;;;;5033211;28;20228;-69
2021/10/19 06:16:29;;;;;;;22.10;18.27;;;12.90;99.90;;;;;;5032619;28;20703;-69
2021/10/19 06:18:56;;;;;;;21.10;16.92;;;12.90;99.90;;;;;;5033070;28;20279;-69
2021/10/19 06:21:23;;;;;;;27.27;19.70;;;12.90;99.90;;;;;;5032618;28;20752;-69
2021/10/19 06:23:50;;;;;;;23.65;19.98;;;12.90;99.90;;;;;;5032845;28;20225;-69
2021/10/19 06:26:17;;;;;;;27.00;19.10;;;13.00;99.90;;;;;;5032869;28;20255;-69
2021/10/19 06:28:43;;;;;;;52.97;22.50;;;13.00;99.90;;;;;;5032405;28;20228;-69
2021/10/19 06:31:12;;;;;;;42.95;21.80;;;13.00;99.90;;;;;;5032991;28;20229;-69
2021/10/19 06:33:39;;;;;;;45.38;21.02;;;13.00;99.90;;;;;;5032368;28;20225;-69
2021/10/19 06:36:06;;;;;;;30.75;21.00;;;13.00;99.90;;;;;;5032753;28;20229;-69
2021/10/19 06:38:33;;;;;;;24.98;19.02;;;13.00;99.90;;;;;;5032280;28;20240;-69
2021/10/19 06:41:00;;;;;;;22.27;18.25;;;13.10;99.90;;;;;;5032796;28;20221;-68
2021/10/19 06:43:27;;;;;;;21.90;19.35;;;13.10;99.90;;;;;;5022213;28;20244;-69
2021/10/19 06:45:54;;;;;;;31.35;25.23;;;13.20;99.90;;;;;;5032857;28;20229;-69
2021/10/19 06:48:22;;;;;;;26.95;23.63;;;13.20;99.90;;;;;;5032517;28;20229;-69
2021/10/19 06:50:49;;;;;;;27.80;21.80;;;13.20;99.90;;;;;;5032265;28;20225;-69
2021/10/19 06:53:16;;;;;;;24.67;20.45;;;13.30;99.90;;;;;;5032686;28;20287;-69
2021/10/19 06:55:43;;;;;;;24.13;20.80;;;13.30;99.90;;;;;;5031991;28;20229;-69
2021/10/19 06:58:11;;;;;;;24.48;18.75;;;13.30;99.90;;;;;;5036535;28;20718;-69
2021/10/19 07:00:38;;;;;;;44.78;21.88;;;13.40;99.90;;;;;;5036031;28;20312;-69
2021/10/19 07:03:05;;;;;;;30.25;20.23;;;13.40;99.90;;;;;;5036848;28;20225;-69
2021/10/19 07:05:33;;;;;;;26.92;19.92;;;13.40;99.90;;;;;;5036236;28;20291;-69
2021/10/19 07:08:00;;;;;;;34.05;20.83;;;13.40;99.90;;;;;;5036538;28;20232;-69
2021/10/19 07:10:27;;;;;;;21.77;17.90;;;13.40;99.90;;;;;;5035834;28;20237;-69
2021/10/19 07:12:54;;;;;;;27.98;20.08;;;13.40;99.90;;;;;;5036561;28;20235;-69
2021/10/19 07:15:21;;;;;;;20.90;17.45;;;13.40;99.90;;;;;;5036131;28;20229;-69
2021/10/19 07:17:48;;;;;;;22.35;17.17;;;13.40;99.90;;;;;;5036023;28;20217;-69
2021/10/19 07:20:15;;;;;;;21.85;18.38;;;13.50;99.90;;;;;;5036243;28;20225;-69
2021/10/19 07:22:44;;;;;;;19.55;17.00;;;13.50;99.90;;;;;;5030215;28;20218;-69
2021/10/19 07:25:12;;;;;;;21.83;19.42;;;13.50;99.90;;;;;;5016188;28;20218;-69
2021/10/19 07:27:39;;;;;;;21.40;18.55;;;13.50;99.90;;;;;;5016134;28;20233;-69
2021/10/19 07:30:07;;;;;;;20.02;17.98;;;13.50;99.90;;;;;;5016184;28;20241;-69
2021/10/19 07:32:34;;;;;;;22.20;18.48;;;13.60;99.90;;;;;;5015900;28;20234;-69
2021/10/19 07:35:01;;;;;;;23.17;19.20;;;13.60;99.90;;;;;;5016230;28;20225;-69
2021/10/19 07:37:28;;;;;;;22.42;19.10;;;13.60;99.90;;;;;;5015860;28;20382;-69
2021/10/19 07:39:56;;;;;;;22.20;19.52;;;13.70;99.90;;;;;;5016183;28;20615;-69
2021/10/19 07:42:23;;;;;;;19.52;17.45;;;13.70;99.90;;;;;;5021728;28;20287;-69
2021/10/19 07:44:50;;;;;;;20.60;18.60;;;13.80;99.90;;;;;;5035664;28;20221;-70
2021/10/19 07:47:17;;;;;;;24.77;20.27;;;13.80;99.90;;;;;;5035737;28;20229;-70
2021/10/19 07:49:44;;;;;;;22.63;19.55;;;13.80;99.90;;;;;;5035344;28;20233;-70
2021/10/19 07:52:12;;;;;;;27.20;20.50;;;13.90;99.90;;;;;;5035865;28;20225;-70
2021/10/19 07:54:39;;;;;;;23.25;20.33;;;14.00;99.90;;;;;;5035114;28;20267;-70
2021/10/19 07:57:07;;;;;;;23.02;20.55;;;14.00;99.90;;;;;;5035777;28;20233;-70
2021/10/19 07:59:34;;;;;;;20.58;16.35;;;14.00;99.90;;;;;;5034928;28;20241;-70
2021/10/19 08:02:01;;;;;;;21.30;18.65;;;14.10;99.90;;;;;;5035783;28;20229;-70
2021/10/19 08:04:28;;;;;;;21.33;18.45;;;14.10;99.90;;;;;;5035580;28;20237;-70
2021/10/19 08:06:55;;;;;;;20.95;17.35;;;14.10;99.90;;;;;;5035143;28;20291;-70
2021/10/19 08:09:22;;;;;;;21.48;19.17;;;14.20;99.90;;;;;;5034376;28;20225;-69
2021/10/19 08:11:49;;;;;;;19.70;17.60;;;14.20;99.90;;;;;;5034765;28;20299;-69
2021/10/19 08:14:17;;;;;;;21.35;18.98;;;14.20;99.90;;;;;;5035204;28;20525;-69
2021/10/19 08:16:44;;;;;;;19.25;17.35;;;14.30;99.90;;;;;;5034906;28;20240;-69
2021/10/19 08:19:11;;;;;;;23.27;19.03;;;14.30;99.90;;;;;;5035045;28;20229;-70
2021/10/19 08:21:38;;;;;;;21.03;18.73;;;14.30;99.90;;;;;;5034728;28;20468;-69
2021/10/19 08:24:06;;;;;;;19.63;17.05;;;14.40;99.90;;;;;;5035173;28;20962;-69
2021/10/19 08:26:33;;;;;;;25.47;20.20;;;14.50;99.90;;;;;;5034633;28;20225;-69
2021/10/19 08:29:01;;;;;;;19.98;17.88;;;14.50;99.90;;;;;;5034833;28;20982;-68
2021/10/19 08:31:30;;;;;;;17.10;15.40;;;14.60;99.90;;;;;;5035160;28;20299;-69
2021/10/19 08:33:58;;;;;;;29.37;25.73;;;14.70;99.90;;;;;;5034562;28;20531;-69
2021/10/19 08:36:26;;;;;;;28.10;21.90;;;14.70;99.90;;;;;;5034812;28;20538;-69
2021/10/19 08:38:53;;;;;;;25.63;19.83;;;14.70;99.90;;;;;;5034445;28;20459;-68
2021/10/19 08:41:22;;;;;;;19.70;17.60;;;14.70;99.90;;;;;;5034851;28;20511;-68
2021/10/19 08:43:49;;;;;;;18.50;16.07;;;14.80;99.90;;;;;;5024239;28;20556;-69
2021/10/19 08:46:18;;;;;;;23.53;17.63;;;14.80;99.90;;;;;;5034858;28;20974;-69
2021/10/19 08:48:47;;;;;;;19.73;17.63;;;14.70;99.90;;;;;;5034189;28;20480;-69
2021/10/19 08:51:14;;;;;;;17.67;15.80;;;14.70;99.90;;;;;;5015239;28;20465;-69
2021/10/19 08:53:42;;;;;;;19.73;17.50;;;14.80;99.90;;;;;;5014476;28;21062;-70
2021/10/19 08:56:10;;;;;;;21.87;17.80;;;14.80;99.90;;;;;;5014734;28;20288;-70
2021/10/19 08:58:39;;;;;;;19.40;17.50;;;14.80;99.90;;;;;;5014289;28;20975;-68
2021/10/19 09:01:06;;;;;;;20.50;15.23;;;14.80;99.90;;;;;;5014426;28;20503;-69
2021/10/19 09:03:33;;;;;;;17.17;15.40;;;14.90;99.90;;;;;;5014764;28;20957;-68
2021/10/19 09:06:03;;;;;;;34.80;27.10;;;15.00;99.90;;;;;;5014101;28;20500;-70
2021/10/19 09:08:30;;;;;;;32.20;25.87;;;15.10;99.90;;;;;;5014570;28;20469;-69
2021/10/19 09:10:57;;;;;;;24.73;21.00;;;15.20;99.90;;;;;;5025495;28;20456;-70
2021/10/19 09:13:23;;;;;;;19.73;17.00;;;15.20;99.90;;;;;;5034260;28;20490;-70
2021/10/19 09:15:52;;;;;;;20.50;16.83;;;15.30;99.90;;;;;;5033805;28;20498;-70
2021/10/19 09:18:21;;;;;;;20.93;17.17;;;15.40;99.90;;;;;;5034218;28;20506;-69
2021/10/19 09:20:50;;;;;;;19.13;16.47;;;15.40;99.90;;;;;;5033635;28;20877;-70
2021/10/19 09:23:21;;;;;;;15.63;13.93;;;15.50;99.90;;;;;;5034025;28;20549;-70
2021/10/19 09:25:51;;;;;;;18.57;15.10;;;15.50;99.90;;;;;;5033570;28;20470;-69
2021/10/19 09:28:34;;;;;;;21.97;15.53;;;15.60;99.90;;;;;;5034070;28;20471;-69
2021/10/19 09:31:01;;;;;;;22.03;19.50;;;15.70;99.90;;;;;;5033702;28;20471;-70
2021/10/19 09:33:31;;;;;;;23.10;20.13;;;15.70;99.90;;;;;;5033929;28;20472;-70
2021/10/19 09:35:59;;;;;;;19.50;17.43;;;15.70;99.90;;;;;;5033339;28;20561;-69
2021/10/19 09:38:28;;;;;;;21.23;19.00;;;15.80;99.90;;;;;;5033677;28;20537;-69
2021/10/19 09:40:57;;;;;;;22.03;19.60;;;15.80;99.90;;;;;;5033309;28;20472;-69
2021/10/19 09:43:26;;;;;;;24.70;17.63;;;15.90;99.90;;;;;;5029727;28;20477;-69
2021/10/19 09:45:56;;;;;;;21.60;16.63;;;15.90;99.90;;;;;;5013342;28;20519;-69
2021/10/19 09:48:26;;;;;;;15.07;13.67;;;16.00;99.90;;;;;;5013997;28;20963;-69
2021/10/19 09:50:55;;;;;;;13.63;12.20;;;16.10;99.90;;;;;;5013294;28;20531;-70
2021/10/19 09:53:24;;;;;;;20.70;17.07;;;16.20;99.90;;;;;;5013513;28;20477;-69
2021/10/19 09:55:54;;;;;;;17.03;15.27;;;16.20;99.90;;;;;;5013309;28;20476;-69
2021/10/19 09:58:22;;;;;;;18.50;15.83;;;16.30;99.90;;;;;;5013875;28;20815;-69
2021/10/19 10:00:50;;;;;;;18.93;17.00;;;16.30;99.90;;;;;;5013102;28;20967;-69
2021/10/19 10:03:17;;;;;;;18.83;16.10;;;16.40;99.90;;;;;;5013647;28;20477;-69
2021/10/19 10:05:44;;;;;;;18.13;16.03;;;16.40;99.90;;;;;;5013150;28;20531;-70
2021/10/19 10:08:17;;;;;;;19.53;16.03;;;16.40;99.90;;;;;;5013552;28;20461;-69
2021/10/19 10:10:44;;;;;;;17.37;15.67;;;16.40;99.90;;;;;;5022407;28;20480;-70
2021/10/19 10:13:17;;;;;;;17.27;15.57;;;16.40;99.90;;;;;;5033265;28;20472;-70
2021/10/19 10:15:44;;;;;;;16.17;14.50;;;16.40;99.90;;;;;;5032577;28;20479;-69
2021/10/19 10:18:12;;;;;;;15.97;14.30;;;16.50;99.90;;;;;;5033099;28;20465;-69
2021/10/19 10:20:41;;;;;;;16.20;14.07;;;16.50;99.90;;;;;;5033035;28;20464;-70
2021/10/19 10:23:14;;;;;;;16.83;15.13;;;16.60;99.90;;;;;;5032471;28;20522;-69
2021/10/19 10:25:41;;;;;;;15.30;13.80;;;16.60;99.90;;;;;;5032929;28;20472;-68
2021/10/19 10:28:24;;;;;;;16.80;14.77;;;16.60;99.90;;;;;;5032465;28;20467;-69
2021/10/19 10:30:51;;;;;;;16.33;13.70;;;16.70;99.90;;;;;;5032285;28;20480;-69
2021/10/19 10:33:18;;;;;;;16.70;14.87;;;16.80;99.90;;;;;;5031224;28;20483;-69
2021/10/19 10:35:47;;;;;;;23.70;21.23;;;16.80;99.90;;;;;;5030320;28;21030;-69
2021/10/19 10:38:15;;;;;;;25.50;22.40;;;16.80;99.90;;;;;;5031164;28;20463;-69
2021/10/19 10:40:44;;;;;;;19.77;17.27;;;16.80;99.90;;;;;;5027682;28;20799;-69
2021/10/19 10:43:23;;;;;;;16.80;15.00;;;16.80;99.90;;;;;;5029705;28;20464;-69
2021/10/19 10:46:02;;;;;;;18.10;16.20;;;16.90;99.90;;;;;;5018364;28;20468;-69
2021/10/19 10:48:29;;;;;;;15.30;13.90;;;16.90;99.90;;;;;;5017999;28;20973;-69
2021/10/19 10:50:56;;;;;;;18.83;16.97;;;16.90;99.90;;;;;;5020346;28;20488;-69
2021/10/19 10:53:31;;;;;;;15.40;13.80;;;17.00;99.90;;;;;;5024218;28;20469;-69
2021/10/19 10:55:58;;;;;;;20.10;18.20;;;17.00;99.90;;;;;;5022943;28;20833;-69
2021/10/19 10:58:28;;;;;;;24.10;21.57;;;17.00;99.90;;;;;;5029469;28;20510;-69
2021/10/19 11:00:55;;;;;;;21.07;18.97;;;17.00;99.90;;;;;;5019824;28;20535;-70
2021/10/19 11:03:22;;;;;;;19.50;16.10;;;17.10;99.90;;;;;;5025806;28;20465;-70
2021/10/19 11:05:55;;;;;;;15.90;14.20;;;17.20;99.90;;;;;;5024431;28;20481;-70
2021/10/19 11:08:27;;;;;;;16.90;15.27;;;17.20;99.90;;;;;;5018800;28;20476;-70
2021/10/19 11:11:04;;;;;;;13.77;12.27;;;17.30;99.90;;;;;;5028991;28;20475;-69
2021/10/19 11:13:33;;;;;;;15.43;13.10;;;17.30;99.90;;;;;;5023699;28;20563;-69
2021/10/19 11:16:00;;;;;;;16.47;14.77;;;17.40;99.90;;;;;;5025190;28;20483;-69
2021/10/19 11:18:27;;;;;;;15.37;12.83;;;17.40;99.90;;;;;;5021600;28;20468;-70
2021/10/19 11:20:56;;;;;;;14.87;13.43;;;17.50;99.90;;;;;;5018746;28;20472;-69
2021/10/19 11:23:25;;;;;;;16.13;14.43;;;17.50;99.90;;;;;;5031991;28;20468;-69
2021/10/19 11:25:53;;;;;;;18.30;16.37;;;17.60;99.90;;;;;;5019838;28;20468;-69
2021/10/19 11:28:20;;;;;;;15.73;14.23;;;17.60;99.90;;;;;;5021834;28;20477;-70
2021/10/19 11:30:49;;;;;;;15.00;13.37;;;17.60;99.90;;;;;;5025600;28;20470;-70
2021/10/19 11:33:16;;;;;;;13.70;12.37;;;17.70;99.90;;;;;;5022827;28;20490;-70
2021/10/19 11:35:43;;;;;;;12.37;11.23;;;17.70;99.90;;;;;;5018780;28;20982;-69
2021/10/19 11:38:10;;;;;;;13.73;12.40;;;17.70;99.90;;;;;;5020588;28;20508;-70
2021/10/19 11:40:37;;;;;;;12.83;10.63;;;17.70;99.80;;;;;;5029589;28;20542;-69
2021/10/19 11:43:04;;;;;;;10.13;9.20;;;17.70;99.80;;;;;;5031449;28;20468;-69
2021/10/19 11:45:31;;;;;;;12.63;11.20;;;17.70;99.80;;;;;;5017771;28;20568;-69
2021/10/19 11:48:01;;;;;;;10.37;9.40;;;17.70;99.70;;;;;;5024509;28;20468;-69
2021/10/19 11:50:30;;;;;;;12.10;10.67;;;17.80;99.70;;;;;;5028828;28;20476;-70
2021/10/19 11:52:58;;;;;;;11.03;9.90;;;17.90;99.80;;;;;;5029350;28;20472;-70
2021/10/19 11:55:25;;;;;;;13.50;9.80;;;17.90;99.80;;;;;;5022109;28;20468;-70
2021/10/19 11:57:54;;;;;;;13.00;11.70;;;18.00;99.90;;;;;;5022699;28;20548;-70
2021/10/19 12:00:23;;;;;;;12.73;11.43;;;18.00;99.80;;;;;;5021791;28;20472;-70
2021/10/19 12:02:56;;;;;;;11.30;10.30;;;18.00;99.60;;;;;;5022331;28;20542;-70
2021/10/19 12:05:26;;;;;;;11.60;10.53;;;18.10;99.70;;;;;;5027410;28;20457;-70
2021/10/19 12:07:54;;;;;;;11.97;10.77;;;18.10;99.90;;;;;;5028704;28;20824;-69
2021/10/19 12:10:23;;;;;;;10.60;9.50;;;18.10;99.70;;;;;;5024005;28;20545;-69
2021/10/19 12:12:55;;;;;;;12.67;11.47;;;18.10;99.70;;;;;;5032218;28;20468;-69
2021/10/19 12:15:23;;;;;;;12.10;11.00;;;18.10;99.60;;;;;;5024576;28;20810;-69
2021/10/19 12:17:59;;;;;;;14.40;11.07;;;18.10;99.60;;;;;;5031118;28;20484;-70
2021/10/19 12:20:33;;;;;;;12.33;10.47;;;18.10;99.60;;;;;;5029826;28;20460;-69
2021/10/19 12:23:02;;;;;;;13.10;11.83;;;18.10;99.60;;;;;;5023365;28;20525;-69
2021/10/19 12:25:38;;;;;;;9.27;8.43;;;18.20;99.70;;;;;;5023194;28;21208;-68
2021/10/19 12:28:05;;;;;;;8.93;7.93;;;18.20;99.70;;;;;;5023035;28;21267;-69
2021/10/19 12:30:37;;;;;;;12.30;11.07;;;18.30;99.80;;;;;;5021097;28;20467;-69